sensor_id;sensor_type;location;lat;lon;timestamp;pressure;altitude;pressure_sealevel;temperature;humidity
44453;BME280;30155;52.164;21.236;2023-03-05T00:00:31;100081.70;;;-3.70;60.82
44453;BME280;30155;52.164;21.236;2023-03-05T00:05:45;100082.45;;;-3.74;61.01
44453;BME280;30155;52.164;21.236;2023-03-05T00:11:26;100080.74;;;-3.77;61.00
44453;BME280;30155;52.164;21.236;2023-03-05T00:16:27;100074.93;;;-3.77;61.20
44453;BME280;30155;52.164;21.236;2023-03-05T00:21:42;100073.40;;;-3.78;61.53
44453;BME280;30155;52.164;21.236;2023-03-05T00:26:44;100071.30;;;-3.79;61.46
44453;BME280;30155;52.164;21.236;2023-03-05T00:32:20;100066.25;;;-3.81;61.66
44453;BME280;30155;52.164;21.236;2023-03-05T00:37:48;100064.40;;;-3.80;61.82
44453;BME280;30155;52.164;21.236;2023-03-05T00:43:05;100059.27;;;-3.81;61.74
44453;BME280;30155;52.164;21.236;2023-03-05T00:48:44;100048.77;;;-3.81;62.12
44453;BME280;30155;52.164;21.236;2023-03-05T00:54:04;100042.70;;;-3.84;62.11
44453;BME280;30155;52.164;21.236;2023-03-05T00:59:05;100038.84;;;-3.84;62.09
44453;BME280;30155;52.164;21.236;2023-03-05T01:04:12;100033.24;;;-3.80;62.36
44453;BME280;30155;52.164;21.236;2023-03-05T01:15:13;100022.60;;;-3.80;62.77
44453;BME280;30155;52.164;21.236;2023-03-05T01:20:25;100022.48;;;-3.85;63.13
44453;BME280;30155;52.164;21.236;2023-03-05T01:25:30;100013.55;;;-3.92;63.63
44453;BME280;30155;52.164;21.236;2023-03-05T01:30:28;100010.42;;;-3.99;63.87
44453;BME280;30155;52.164;21.236;2023-03-05T01:35:27;100006.16;;;-4.07;63.89
44453;BME280;30155;52.164;21.236;2023-03-05T01:40:31;100003.84;;;-4.15;64.32
44453;BME280;30155;52.164;21.236;2023-03-05T01:45:31;99996.39;;;-4.23;64.35
44453;BME280;30155;52.164;21.236;2023-03-05T01:50:37;99994.59;;;-4.30;64.04
44453;BME280;30155;52.164;21.236;2023-03-05T01:55:54;99989.70;;;-4.37;64.67
44453;BME280;30155;52.164;21.236;2023-03-05T02:01:11;99985.73;;;-4.44;64.51
44453;BME280;30155;52.164;21.236;2023-03-05T02:06:15;99986.21;;;-4.49;65.06
44453;BME280;30155;52.164;21.236;2023-03-05T02:11:49;99980.77;;;-4.55;64.95
44453;BME280;30155;52.164;21.236;2023-03-05T02:17:00;99983.43;;;-4.58;65.21
44453;BME280;30155;52.164;21.236;2023-03-05T02:22:00;99984.09;;;-4.64;65.47
44453;BME280;30155;52.164;21.236;2023-03-05T02:27:04;99983.77;;;-4.69;65.28
44453;BME280;30155;52.164;21.236;2023-03-05T02:32:02;99977.94;;;-4.73;65.43
44453;BME280;30155;52.164;21.236;2023-03-05T02:37:01;99972.39;;;-4.74;65.62
44453;BME280;30155;52.164;21.236;2023-03-05T02:41:58;99973.38;;;-4.80;65.99
44453;BME280;30155;52.164;21.236;2023-03-05T02:46:59;99973.16;;;-4.84;65.79
44453;BME280;30155;52.164;21.236;2023-03-05T02:51:52;99966.67;;;-4.87;66.35
44453;BME280;30155;52.164;21.236;2023-03-05T02:56:45;99962.83;;;-4.91;66.40
44453;BME280;30155;52.164;21.236;2023-03-05T03:01:38;99955.52;;;-4.97;66.29
44453;BME280;30155;52.164;21.236;2023-03-05T03:06:31;99952.83;;;-5.00;66.52
44453;BME280;30155;52.164;21.236;2023-03-05T03:11:24;99951.98;;;-5.02;66.66
44453;BME280;30155;52.164;21.236;2023-03-05T03:16:17;99954.05;;;-5.09;66.48
44453;BME280;30155;52.164;21.236;2023-03-05T03:21:16;99954.60;;;-5.14;66.92
44453;BME280;30155;52.164;21.236;2023-03-05T03:26:10;99949.59;;;-5.15;66.88
44453;BME280;30155;52.164;21.236;2023-03-05T03:31:03;99946.77;;;-5.17;66.89
44453;BME280;30155;52.164;21.236;2023-03-05T03:35:59;99946.05;;;-5.18;67.09
44453;BME280;30155;52.164;21.236;2023-03-05T03:40:52;99941.38;;;-5.19;67.35
44453;BME280;30155;52.164;21.236;2023-03-05T03:45:45;99937.06;;;-5.23;67.24
44453;BME280;30155;52.164;21.236;2023-03-05T03:50:42;99933.50;;;-5.26;67.17
44453;BME280;30155;52.164;21.236;2023-03-05T03:55:35;99930.46;;;-5.28;67.27
44453;BME280;30155;52.164;21.236;2023-03-05T04:00:28;99929.71;;;-5.32;67.45
44453;BME280;30155;52.164;21.236;2023-03-05T04:05:21;99925.77;;;-5.33;67.92
44453;BME280;30155;52.164;21.236;2023-03-05T04:10:13;99921.08;;;-5.30;68.06
44453;BME280;30155;52.164;21.236;2023-03-05T04:15:07;99917.55;;;-5.29;68.16
44453;BME280;30155;52.164;21.236;2023-03-05T04:20:01;99917.04;;;-5.27;68.52
44453;BME280;30155;52.164;21.236;2023-03-05T04:24:56;99910.83;;;-5.24;68.31
44453;BME280;30155;52.164;21.236;2023-03-05T04:30:33;99905.80;;;-5.21;68.23
44453;BME280;30155;52.164;21.236;2023-03-05T04:35:59;99901.48;;;-5.22;68.52
44453;BME280;30155;52.164;21.236;2023-03-05T04:40:52;99898.53;;;-5.23;68.64
44453;BME280;30155;52.164;21.236;2023-03-05T04:45:44;99898.98;;;-5.24;68.70
44453;BME280;30155;52.164;21.236;2023-03-05T04:50:37;99892.73;;;-5.25;68.69
44453;BME280;30155;52.164;21.236;2023-03-05T04:55:31;99892.61;;;-5.21;69.09
44453;BME280;30155;52.164;21.236;2023-03-05T05:00:24;99888.98;;;-5.15;69.08
44453;BME280;30155;52.164;21.236;2023-03-05T05:05:20;99876.73;;;-5.11;69.16
44453;BME280;30155;52.164;21.236;2023-03-05T05:10:15;99872.77;;;-5.07;69.18
44453;BME280;30155;52.164;21.236;2023-03-05T05:15:10;99866.31;;;-5.02;69.14
44453;BME280;30155;52.164;21.236;2023-03-05T05:20:04;99863.37;;;-4.98;69.20
44453;BME280;30155;52.164;21.236;2023-03-05T05:24:58;99859.02;;;-4.94;69.22
44453;BME280;30155;52.164;21.236;2023-03-05T05:29:51;99855.40;;;-4.93;69.14
44453;BME280;30155;52.164;21.236;2023-03-05T05:34:45;99857.64;;;-4.89;69.18
44453;BME280;30155;52.164;21.236;2023-03-05T05:39:38;99861.23;;;-4.89;68.92
44453;BME280;30155;52.164;21.236;2023-03-05T05:44:31;99856.10;;;-4.90;69.04
44453;BME280;30155;52.164;21.236;2023-03-05T05:49:25;99856.77;;;-4.92;69.22
44453;BME280;30155;52.164;21.236;2023-03-05T05:54:18;99861.48;;;-4.93;69.26
44453;BME280;30155;52.164;21.236;2023-03-05T05:59:11;99855.48;;;-4.91;69.57
44453;BME280;30155;52.164;21.236;2023-03-05T06:04:04;99853.75;;;-4.90;69.15
44453;BME280;30155;52.164;21.236;2023-03-05T06:08:57;99854.61;;;-4.87;69.23
44453;BME280;30155;52.164;21.236;2023-03-05T06:13:50;99848.69;;;-4.79;69.33
44453;BME280;30155;52.164;21.236;2023-03-05T06:18:43;99844.80;;;-4.71;69.55
44453;BME280;30155;52.164;21.236;2023-03-05T06:23:38;99845.15;;;-4.63;69.09
44453;BME280;30155;52.164;21.236;2023-03-05T06:28:34;99843.35;;;-4.51;69.14
44453;BME280;30155;52.164;21.236;2023-03-05T06:33:28;99837.39;;;-4.38;69.23
44453;BME280;30155;52.164;21.236;2023-03-05T06:38:21;99828.96;;;-4.12;68.83
44453;BME280;30155;52.164;21.236;2023-03-05T06:43:14;99813.13;;;-3.91;68.47
44453;BME280;30155;52.164;21.236;2023-03-05T06:48:10;99804.45;;;-3.63;68.29
44453;BME280;30155;52.164;21.236;2023-03-05T06:53:03;99799.96;;;-3.15;67.69
44453;BME280;30155;52.164;21.236;2023-03-05T06:57:56;99793.60;;;-2.48;66.93
44453;BME280;30155;52.164;21.236;2023-03-05T07:02:49;99786.88;;;-1.96;66.29
44453;BME280;30155;52.164;21.236;2023-03-05T07:07:42;99785.39;;;-1.52;65.61
44453;BME280;30155;52.164;21.236;2023-03-05T07:12:35;99768.00;;;-1.15;65.01
44453;BME280;30155;52.164;21.236;2023-03-05T07:17:29;99752.45;;;-0.95;64.34
44453;BME280;30155;52.164;21.236;2023-03-05T07:22:21;99750.05;;;-0.62;63.81
44453;BME280;30155;52.164;21.236;2023-03-05T07:27:14;99735.45;;;-0.27;63.32
44453;BME280;30155;52.164;21.236;2023-03-05T07:32:07;99732.04;;;0.04;62.88
44453;BME280;30155;52.164;21.236;2023-03-05T07:37:01;99739.38;;;0.36;62.39
44453;BME280;30155;52.164;21.236;2023-03-05T07:41:53;99745.94;;;0.71;62.29
44453;BME280;30155;52.164;21.236;2023-03-05T07:46:50;99752.43;;;0.93;61.93
44453;BME280;30155;52.164;21.236;2023-03-05T07:51:43;99741.08;;;1.07;61.80
44453;BME280;30155;52.164;21.236;2023-03-05T07:56:36;99732.23;;;1.31;61.44
44453;BME280;30155;52.164;21.236;2023-03-05T08:01:29;99728.94;;;1.56;60.95
44453;BME280;30155;52.164;21.236;2023-03-05T08:06:22;99731.11;;;1.79;60.54
44453;BME280;30155;52.164;21.236;2023-03-05T08:11:16;99740.29;;;1.96;60.80
44453;BME280;30155;52.164;21.236;2023-03-05T08:16:17;99733.45;;;2.15;60.59
44453;BME280;30155;52.164;21.236;2023-03-05T08:21:19;99736.95;;;2.08;59.24
44453;BME280;30155;52.164;21.236;2023-03-05T08:26:14;99732.40;;;1.91;59.68
44453;BME280;30155;52.164;21.236;2023-03-05T08:31:10;99732.03;;;1.75;59.53
44453;BME280;30155;52.164;21.236;2023-03-05T08:36:04;99727.38;;;1.60;59.83
44453;BME280;30155;52.164;21.236;2023-03-05T08:40:57;99724.81;;;1.46;60.18
44453;BME280;30155;52.164;21.236;2023-03-05T08:45:50;99724.38;;;1.35;60.02
44453;BME280;30155;52.164;21.236;2023-03-05T08:50:44;99723.59;;;1.23;59.89
44453;BME280;30155;52.164;21.236;2023-03-05T08:55:37;99725.25;;;1.27;60.44
44453;BME280;30155;52.164;21.236;2023-03-05T09:00:30;99724.33;;;1.25;60.09
44453;BME280;30155;52.164;21.236;2023-03-05T09:05:22;99722.48;;;1.17;60.25
44453;BME280;30155;52.164;21.236;2023-03-05T09:10:15;99713.48;;;1.18;60.64
44453;BME280;30155;52.164;21.236;2023-03-05T09:15:10;99716.59;;;1.23;60.09
44453;BME280;30155;52.164;21.236;2023-03-05T09:20:05;99720.59;;;1.21;60.01
44453;BME280;30155;52.164;21.236;2023-03-05T09:24:58;99716.41;;;1.19;60.23
44453;BME280;30155;52.164;21.236;2023-03-05T09:29:51;99723.86;;;1.22;60.29
44453;BME280;30155;52.164;21.236;2023-03-05T09:34:44;99726.70;;;1.24;60.15
44453;BME280;30155;52.164;21.236;2023-03-05T09:39:37;99726.48;;;1.23;59.73
44453;BME280;30155;52.164;21.236;2023-03-05T09:44:52;99722.83;;;1.21;59.66
44453;BME280;30155;52.164;21.236;2023-03-05T09:50:11;99724.27;;;1.23;59.97
44453;BME280;30155;52.164;21.236;2023-03-05T09:55:22;99716.80;;;1.24;60.18
44453;BME280;30155;52.164;21.236;2023-03-05T10:05:28;99709.84;;;1.30;60.60
44453;BME280;30155;52.164;21.236;2023-03-05T10:10:26;99708.23;;;1.32;60.49
44453;BME280;30155;52.164;21.236;2023-03-05T10:15:35;99703.64;;;1.38;60.32
44453;BME280;30155;52.164;21.236;2023-03-05T10:20:51;99699.92;;;1.43;60.41
44453;BME280;30155;52.164;21.236;2023-03-05T10:36:25;99690.36;;;1.52;60.27
44453;BME280;30155;52.164;21.236;2023-03-05T10:41:28;99687.61;;;1.57;60.51
44453;BME280;30155;52.164;21.236;2023-03-05T10:46:30;99684.60;;;1.54;60.12
44453;BME280;30155;52.164;21.236;2023-03-05T10:51:37;99679.20;;;1.50;60.26
44453;BME280;30155;52.164;21.236;2023-03-05T10:56:32;99676.30;;;1.50;60.53
44453;BME280;30155;52.164;21.236;2023-03-05T11:01:27;99673.13;;;1.48;60.95
44453;BME280;30155;52.164;21.236;2023-03-05T11:06:35;99667.83;;;1.43;60.83
44453;BME280;30155;52.164;21.236;2023-03-05T11:11:28;99667.94;;;1.33;61.25
44453;BME280;30155;52.164;21.236;2023-03-05T11:16:32;99665.89;;;1.23;61.60
44453;BME280;30155;52.164;21.236;2023-03-05T11:21:25;99656.33;;;1.19;61.82
44453;BME280;30155;52.164;21.236;2023-03-05T11:26:21;99655.33;;;1.19;62.03
44453;BME280;30155;52.164;21.236;2023-03-05T11:36:30;99641.63;;;1.09;62.43
44453;BME280;30155;52.164;21.236;2023-03-05T11:46:37;99642.14;;;0.96;62.95
44453;BME280;30155;52.164;21.236;2023-03-05T11:51:47;99641.36;;;0.79;63.62
44453;BME280;30155;52.164;21.236;2023-03-05T11:56:43;99641.14;;;0.61;64.69
44453;BME280;30155;52.164;21.236;2023-03-05T12:01:45;99635.56;;;0.54;65.59
44453;BME280;30155;52.164;21.236;2023-03-05T12:06:48;99628.30;;;0.55;66.13
44453;BME280;30155;52.164;21.236;2023-03-05T12:11:42;99618.45;;;0.61;66.36
44453;BME280;30155;52.164;21.236;2023-03-05T12:16:47;99619.59;;;0.72;66.71
44453;BME280;30155;52.164;21.236;2023-03-05T12:21:43;99617.45;;;0.79;66.79
44453;BME280;30155;52.164;21.236;2023-03-05T12:31:44;99610.10;;;0.83;67.21
44453;BME280;30155;52.164;21.236;2023-03-05T12:36:37;99612.10;;;0.72;66.84
44453;BME280;30155;52.164;21.236;2023-03-05T12:41:31;99609.88;;;0.72;67.40
44453;BME280;30155;52.164;21.236;2023-03-05T12:46:26;99599.26;;;0.67;67.31
44453;BME280;30155;52.164;21.236;2023-03-05T12:51:31;99600.73;;;0.61;67.82
44453;BME280;30155;52.164;21.236;2023-03-05T12:56:28;99590.42;;;0.59;67.74
44453;BME280;30155;52.164;21.236;2023-03-05T13:01:35;99589.14;;;0.61;68.19
44453;BME280;30155;52.164;21.236;2023-03-05T13:06:33;99585.07;;;0.61;68.24
44453;BME280;30155;52.164;21.236;2023-03-05T13:11:27;99582.97;;;0.65;68.43
44453;BME280;30155;52.164;21.236;2023-03-05T13:16:26;99579.15;;;0.67;68.34
44453;BME280;30155;52.164;21.236;2023-03-05T13:21:25;99582.59;;;0.64;68.69
44453;BME280;30155;52.164;21.236;2023-03-05T13:26:18;99580.53;;;0.63;68.86
44453;BME280;30155;52.164;21.236;2023-03-05T13:31:14;99580.59;;;0.56;69.11
44453;BME280;30155;52.164;21.236;2023-03-05T13:36:13;99576.30;;;0.51;68.94
44453;BME280;30155;52.164;21.236;2023-03-05T13:46:03;99565.69;;;0.50;69.11
44453;BME280;30155;52.164;21.236;2023-03-05T13:50:57;99558.74;;;0.47;69.28
44453;BME280;30155;52.164;21.236;2023-03-05T13:55:51;99555.54;;;0.43;69.37
44453;BME280;30155;52.164;21.236;2023-03-05T14:00:44;99547.96;;;0.41;69.38
44453;BME280;30155;52.164;21.236;2023-03-05T14:05:42;99548.67;;;0.42;69.63
44453;BME280;30155;52.164;21.236;2023-03-05T14:10:37;99541.05;;;0.48;69.74
44453;BME280;30155;52.164;21.236;2023-03-05T14:15:32;99540.87;;;0.48;69.75
44453;BME280;30155;52.164;21.236;2023-03-05T14:20:27;99534.23;;;0.48;69.82
44453;BME280;30155;52.164;21.236;2023-03-05T14:25:35;99527.29;;;0.45;69.44
44453;BME280;30155;52.164;21.236;2023-03-05T14:30:33;99517.33;;;0.38;69.55
44453;BME280;30155;52.164;21.236;2023-03-05T14:35:27;99511.77;;;0.40;69.60
44453;BME280;30155;52.164;21.236;2023-03-05T14:40:35;99508.23;;;0.36;69.53
44453;BME280;30155;52.164;21.236;2023-03-05T14:45:31;99504.08;;;0.34;69.79
44453;BME280;30155;52.164;21.236;2023-03-05T14:50:27;99506.21;;;0.32;69.88
44453;BME280;30155;52.164;21.236;2023-03-05T14:55:23;99513.20;;;0.28;69.79
44453;BME280;30155;52.164;21.236;2023-03-05T15:00:19;99507.42;;;0.24;69.80
44453;BME280;30155;52.164;21.236;2023-03-05T15:05:12;99504.94;;;0.17;70.02
44453;BME280;30155;52.164;21.236;2023-03-05T15:10:05;99502.96;;;0.15;70.37
44453;BME280;30155;52.164;21.236;2023-03-05T15:14:59;99504.95;;;0.13;70.26
44453;BME280;30155;52.164;21.236;2023-03-05T15:19:52;99506.25;;;0.08;70.30
44453;BME280;30155;52.164;21.236;2023-03-05T15:24:45;99499.20;;;0.06;70.58
44453;BME280;30155;52.164;21.236;2023-03-05T15:29:38;99500.94;;;0.02;70.38
44453;BME280;30155;52.164;21.236;2023-03-05T15:34:32;99506.48;;;-0.04;70.57
44453;BME280;30155;52.164;21.236;2023-03-05T15:39:25;99509.22;;;-0.08;70.76
44453;BME280;30155;52.164;21.236;2023-03-05T15:44:18;99516.38;;;-0.13;70.76
44453;BME280;30155;52.164;21.236;2023-03-05T15:49:12;99528.77;;;-0.17;71.01
44453;BME280;30155;52.164;21.236;2023-03-05T15:54:05;99528.50;;;-0.20;70.97
44453;BME280;30155;52.164;21.236;2023-03-05T15:58:58;99526.25;;;-0.25;71.15
44453;BME280;30155;52.164;21.236;2023-03-05T16:03:52;99529.52;;;-0.32;70.89
44453;BME280;30155;52.164;21.236;2023-03-05T16:08:45;99530.44;;;-0.39;71.23
44453;BME280;30155;52.164;21.236;2023-03-05T16:13:40;99530.48;;;-0.47;71.27
44453;BME280;30155;52.164;21.236;2023-03-05T16:18:36;99528.65;;;-0.57;71.21
44453;BME280;30155;52.164;21.236;2023-03-05T16:23:32;99530.06;;;-0.68;71.37
44453;BME280;30155;52.164;21.236;2023-03-05T16:28:24;99537.75;;;-0.76;71.66
44453;BME280;30155;52.164;21.236;2023-03-05T16:33:17;99536.00;;;-0.85;71.60
44453;BME280;30155;52.164;21.236;2023-03-05T16:38:10;99536.66;;;-0.93;71.61
44453;BME280;30155;52.164;21.236;2023-03-05T16:43:03;99536.44;;;-1.02;71.99
44453;BME280;30155;52.164;21.236;2023-03-05T16:47:56;99543.02;;;-1.06;72.16
44453;BME280;30155;52.164;21.236;2023-03-05T16:52:49;99544.57;;;-1.10;72.20
44453;BME280;30155;52.164;21.236;2023-03-05T16:57:42;99545.60;;;-1.14;72.26
44453;BME280;30155;52.164;21.236;2023-03-05T17:02:35;99549.54;;;-1.17;72.40
44453;BME280;30155;52.164;21.236;2023-03-05T17:07:28;99552.95;;;-1.21;72.43
44453;BME280;30155;52.164;21.236;2023-03-05T17:12:21;99553.63;;;-1.25;72.66
44453;BME280;30155;52.164;21.236;2023-03-05T17:17:14;99557.34;;;-1.29;72.73
44453;BME280;30155;52.164;21.236;2023-03-05T17:22:07;99556.30;;;-1.33;73.04
44453;BME280;30155;52.164;21.236;2023-03-05T17:27:02;99561.59;;;-1.37;73.03
44453;BME280;30155;52.164;21.236;2023-03-05T17:31:55;99558.69;;;-1.40;73.19
44453;BME280;30155;52.164;21.236;2023-03-05T17:36:48;99555.19;;;-1.42;73.34
44453;BME280;30155;52.164;21.236;2023-03-05T17:41:41;99550.39;;;-1.47;73.33
44453;BME280;30155;52.164;21.236;2023-03-05T17:46:34;99550.04;;;-1.55;73.53
44453;BME280;30155;52.164;21.236;2023-03-05T17:51:26;99552.64;;;-1.64;73.52
44453;BME280;30155;52.164;21.236;2023-03-05T17:56:19;99552.81;;;-1.75;73.60
44453;BME280;30155;52.164;21.236;2023-03-05T18:01:30;99555.76;;;-1.85;73.94
44453;BME280;30155;52.164;21.236;2023-03-05T18:06:23;99550.33;;;-1.96;73.96
44453;BME280;30155;52.164;21.236;2023-03-05T18:11:17;99554.48;;;-2.04;74.13
44453;BME280;30155;52.164;21.236;2023-03-05T18:16:09;99561.55;;;-2.13;74.31
44453;BME280;30155;52.164;21.236;2023-03-05T18:21:04;99558.73;;;-2.21;74.34
44453;BME280;30155;52.164;21.236;2023-03-05T18:25:57;99564.27;;;-2.30;74.53
44453;BME280;30155;52.164;21.236;2023-03-05T18:30:50;99565.07;;;-2.38;74.65
44453;BME280;30155;52.164;21.236;2023-03-05T18:35:43;99565.02;;;-2.45;74.67
44453;BME280;30155;52.164;21.236;2023-03-05T18:40:37;99567.70;;;-2.53;74.61
44453;BME280;30155;52.164;21.236;2023-03-05T18:45:31;99567.39;;;-2.62;74.82
44453;BME280;30155;52.164;21.236;2023-03-05T18:50:26;99564.19;;;-2.69;75.01
44453;BME280;30155;52.164;21.236;2023-03-05T18:55:22;99559.30;;;-2.75;75.18
44453;BME280;30155;52.164;21.236;2023-03-05T19:00:22;99566.02;;;-2.83;75.13
44453;BME280;30155;52.164;21.236;2023-03-05T19:05:15;99567.26;;;-2.91;75.20
44453;BME280;30155;52.164;21.236;2023-03-05T19:10:10;99563.71;;;-2.97;75.35
44453;BME280;30155;52.164;21.236;2023-03-05T19:15:04;99566.45;;;-3.04;75.32
44453;BME280;30155;52.164;21.236;2023-03-05T19:19:58;99560.48;;;-3.11;75.42
44453;BME280;30155;52.164;21.236;2023-03-05T19:24:52;99565.42;;;-3.17;75.32
44453;BME280;30155;52.164;21.236;2023-03-05T19:29:44;99559.84;;;-3.26;75.32
44453;BME280;30155;52.164;21.236;2023-03-05T19:34:37;99567.14;;;-3.32;75.58
44453;BME280;30155;52.164;21.236;2023-03-05T19:39:31;99567.48;;;-3.38;75.38
44453;BME280;30155;52.164;21.236;2023-03-05T19:44:24;99570.57;;;-3.44;75.86
44453;BME280;30155;52.164;21.236;2023-03-05T19:49:18;99568.77;;;-3.50;75.65
44453;BME280;30155;52.164;21.236;2023-03-05T19:54:13;99570.15;;;-3.55;75.73
44453;BME280;30155;52.164;21.236;2023-03-05T19:59:06;99576.23;;;-3.65;75.41
44453;BME280;30155;52.164;21.236;2023-03-05T20:04:02;99583.57;;;-3.72;75.31
44453;BME280;30155;52.164;21.236;2023-03-05T20:08:56;99583.80;;;-3.81;75.50
44453;BME280;30155;52.164;21.236;2023-03-05T20:13:51;99582.77;;;-3.88;75.60
44453;BME280;30155;52.164;21.236;2023-03-05T20:18:45;99578.73;;;-3.93;75.43
44453;BME280;30155;52.164;21.236;2023-03-05T20:23:38;99579.86;;;-4.00;75.55
44453;BME280;30155;52.164;21.236;2023-03-05T20:28:32;99579.85;;;-4.03;75.79
44453;BME280;30155;52.164;21.236;2023-03-05T20:33:26;99580.23;;;-4.11;75.32
44453;BME280;30155;52.164;21.236;2023-03-05T20:38:21;99581.11;;;-4.20;75.02
44453;BME280;30155;52.164;21.236;2023-03-05T20:43:17;99582.23;;;-4.30;74.68
44453;BME280;30155;52.164;21.236;2023-03-05T20:48:10;99580.08;;;-4.35;75.08
44453;BME280;30155;52.164;21.236;2023-03-05T20:53:03;99581.77;;;-4.41;75.33
44453;BME280;30155;52.164;21.236;2023-03-05T20:57:57;99584.07;;;-4.45;75.43
44453;BME280;30155;52.164;21.236;2023-03-05T21:02:51;99580.48;;;-4.48;75.74
44453;BME280;30155;52.164;21.236;2023-03-05T21:07:45;99581.39;;;-4.50;75.72
44453;BME280;30155;52.164;21.236;2023-03-05T21:12:38;99577.52;;;-4.52;75.74
44453;BME280;30155;52.164;21.236;2023-03-05T21:17:31;99577.39;;;-4.61;75.67
44453;BME280;30155;52.164;21.236;2023-03-05T21:22:24;99578.68;;;-4.65;75.41
44453;BME280;30155;52.164;21.236;2023-03-05T21:27:17;99575.02;;;-4.72;75.37
44453;BME280;30155;52.164;21.236;2023-03-05T21:32:10;99575.95;;;-4.77;75.45
44453;BME280;30155;52.164;21.236;2023-03-05T21:37:03;99571.86;;;-4.83;75.28
44453;BME280;30155;52.164;21.236;2023-03-05T21:41:55;99567.36;;;-4.84;75.39
44453;BME280;30155;52.164;21.236;2023-03-05T21:46:48;99559.88;;;-4.88;75.35
44453;BME280;30155;52.164;21.236;2023-03-05T21:51:41;99559.64;;;-4.92;75.38
44453;BME280;30155;52.164;21.236;2023-03-05T21:56:47;99555.86;;;-4.99;75.54
44453;BME280;30155;52.164;21.236;2023-03-05T22:01:40;99556.96;;;-5.00;75.81
44453;BME280;30155;52.164;21.236;2023-03-05T22:06:32;99558.19;;;-5.03;75.66
44453;BME280;30155;52.164;21.236;2023-03-05T22:11:25;99553.26;;;-5.06;75.63
44453;BME280;30155;52.164;21.236;2023-03-05T22:16:25;99549.83;;;-5.07;75.73
44453;BME280;30155;52.164;21.236;2023-03-05T22:21:21;99544.96;;;-5.09;75.70
44453;BME280;30155;52.164;21.236;2023-03-05T22:26:17;99547.98;;;-5.12;75.24
44453;BME280;30155;52.164;21.236;2023-03-05T22:31:09;99545.59;;;-5.15;75.58
44453;BME280;30155;52.164;21.236;2023-03-05T22:36:07;99545.89;;;-5.16;75.72
44453;BME280;30155;52.164;21.236;2023-03-05T22:41:00;99545.52;;;-5.16;75.84
44453;BME280;30155;52.164;21.236;2023-03-05T22:45:53;99549.79;;;-5.16;75.87
44453;BME280;30155;52.164;21.236;2023-03-05T22:50:53;99549.29;;;-5.16;75.91
44453;BME280;30155;52.164;21.236;2023-03-05T22:55:46;99551.39;;;-5.14;75.81
44453;BME280;30155;52.164;21.236;2023-03-05T23:00:40;99552.85;;;-5.13;75.71
44453;BME280;30155;52.164;21.236;2023-03-05T23:05:37;99552.29;;;-5.13;75.59
44453;BME280;30155;52.164;21.236;2023-03-05T23:10:30;99551.89;;;-5.14;75.53
44453;BME280;30155;52.164;21.236;2023-03-05T23:15:29;99554.27;;;-5.14;75.81
44453;BME280;30155;52.164;21.236;2023-03-05T23:20:25;99554.05;;;-5.15;75.70
44453;BME280;30155;52.164;21.236;2023-03-05T23:25:18;99553.76;;;-5.14;75.75
44453;BME280;30155;52.164;21.236;2023-03-05T23:30:20;99551.89;;;-5.09;76.09
44453;BME280;30155;52.164;21.236;2023-03-05T23:35:15;99551.16;;;-5.04;76.03
44453;BME280;30155;52.164;21.236;2023-03-05T23:40:13;99546.73;;;-5.02;76.06
44453;BME280;30155;52.164;21.236;2023-03-05T23:45:09;99539.35;;;-5.01;76.17
44453;BME280;30155;52.164;21.236;2023-03-05T23:50:04;99540.45;;;-5.05;75.89
44453;BME280;30155;52.164;21.236;2023-03-05T23:54:57;99542.63;;;-5.11;75.96
44453;BME280;30155;52.164;21.236;2023-03-05T23:59:50;99542.08;;;-5.18;76.30
